Time;durP1;ratioP1;P1;durP2;ratioP2;P2;SDS_P1;SDS_P2;PMS_P1;PMS_P2;Temp;Humidity;BMP_temperature;BMP_pressure;BME280_temperature;BME280_humidity;BME280_pressure;Samples;Min_cycle;Max_cycle;Signal;HPM_P1;HPM_P2
2021/01/13 00:01:05;;;;;;;18.23;3.67;;;0.60;99.90;;;;;;5049877;28;20136;-71
2021/01/13 00:03:32;;;;;;;12.95;3.80;;;0.60;99.90;;;;;;5046424;28;20560;-71
2021/01/13 00:05:58;;;;;;;10.85;4.28;;;0.60;99.90;;;;;;5048189;28;20075;-71
2021/01/13 00:08:25;;;;;;;9.93;3.15;;;0.70;99.90;;;;;;5048897;28;20443;-70
2021/01/13 00:10:52;;;;;;;17.63;3.70;;;0.70;99.90;;;;;;5049448;28;20514;-71
2021/01/13 00:13:18;;;;;;;10.40;3.70;;;0.70;99.90;;;;;;5049716;28;20444;-71
2021/01/13 00:15:45;;;;;;;43.97;15.82;;;0.70;99.90;;;;;;5046361;28;20729;-70
2021/01/13 00:18:12;;;;;;;34.78;13.10;;;0.50;99.90;;;;;;5046000;28;20060;-70
2021/01/13 00:20:39;;;;;;;100.30;36.17;;;0.40;99.90;;;;;;5044768;28;20095;-71
2021/01/13 00:23:05;;;;;;;66.38;26.42;;;0.20;99.90;;;;;;5042742;28;20107;-71
2021/01/13 00:25:31;;;;;;;50.70;21.67;;;0.00;99.90;;;;;;5038956;28;20072;-71
2021/01/13 00:27:58;;;;;;;37.03;14.77;;;-0.20;99.90;;;;;;5044342;28;20045;-71
2021/01/13 00:30:24;;;;;;;36.83;14.88;;;-0.30;99.90;;;;;;5037360;28;20057;-71
2021/01/13 00:32:50;;;;;;;35.00;12.63;;;-0.30;99.90;;;;;;5039779;28;20099;-70
2021/01/13 00:35:18;;;;;;;20.23;7.90;;;-0.40;99.90;;;;;;5039843;28;20160;-70
2021/01/13 00:37:44;;;;;;;14.80;6.00;;;-0.30;99.90;;;;;;5038427;28;20053;-71
2021/01/13 00:40:12;;;;;;;12.32;3.63;;;-0.20;99.90;;;;;;5032181;28;20584;-71
2021/01/13 00:42:43;;;;;;;12.90;3.05;;;0.00;99.90;;;;;;5032455;28;20133;-71
2021/01/13 00:45:11;;;;;;;13.55;3.63;;;0.20;99.90;;;;;;5033152;28;20068;-71
2021/01/13 00:47:37;;;;;;;15.07;4.63;;;0.30;99.90;;;;;;5039151;28;20127;-70
2021/01/13 00:50:04;;;;;;;19.92;7.57;;;0.50;99.90;;;;;;5034946;28;20132;-71
2021/01/13 00:52:30;;;;;;;17.48;6.18;;;0.30;99.90;;;;;;5032375;28;20487;-71
2021/01/13 00:54:57;;;;;;;13.95;5.00;;;0.10;99.90;;;;;;5017989;28;20079;-71
2021/01/13 00:57:23;;;;;;;20.10;5.53;;;-0.10;99.90;;;;;;5049861;28;20057;-71
2021/01/13 00:59:49;;;;;;;10.20;5.28;;;-0.20;99.90;;;;;;5043021;28;20045;-71
2021/01/13 01:02:16;;;;;;;16.90;5.95;;;-0.20;99.90;;;;;;5034981;28;20148;-71
2021/01/13 01:04:42;;;;;;;16.90;6.45;;;-0.30;99.90;;;;;;5039949;28;20050;-71
2021/01/13 01:07:09;;;;;;;15.10;5.40;;;-0.40;99.90;;;;;;5028753;28;20077;-71
2021/01/13 01:09:35;;;;;;;19.90;5.75;;;-0.50;99.90;;;;;;5046559;28;20083;-71
2021/01/13 01:12:01;;;;;;;13.32;5.82;;;-0.50;99.90;;;;;;5049897;28;20127;-71
2021/01/13 01:14:28;;;;;;;18.52;5.55;;;-0.50;99.90;;;;;;5048902;28;20207;-70
2021/01/13 01:16:54;;;;;;;20.83;7.43;;;-0.60;99.90;;;;;;5046252;28;20562;-71
2021/01/13 01:19:21;;;;;;;25.08;8.52;;;-0.60;99.90;;;;;;5046047;28;20487;-70
2021/01/13 01:21:48;;;;;;;16.00;5.50;;;-0.70;99.90;;;;;;5047574;28;20037;-72
2021/01/13 01:24:14;;;;;;;17.88;7.68;;;-0.70;99.90;;;;;;5047361;28;20157;-71
2021/01/13 01:26:47;;;;;;;16.13;6.72;;;-0.70;99.90;;;;;;5045795;28;20052;-71
2021/01/13 01:29:14;;;;;;;17.95;8.27;;;-0.80;99.90;;;;;;5035385;28;20057;-71
2021/01/13 01:31:41;;;;;;;17.52;7.35;;;-0.90;99.90;;;;;;5041785;28;20044;-71
2021/01/13 01:34:07;;;;;;;16.83;7.45;;;-0.90;99.90;;;;;;5041758;28;20056;-70
2021/01/13 01:36:34;;;;;;;20.02;7.88;;;-1.00;99.90;;;;;;5044747;28;20118;-71
2021/01/13 01:39:00;;;;;;;15.55;7.88;;;-1.00;99.90;;;;;;5031688;28;20127;-71
2021/01/13 01:41:27;;;;;;;18.73;7.82;;;-1.10;99.90;;;;;;5041361;28;20141;-71
2021/01/13 01:43:53;;;;;;;20.48;9.52;;;-1.10;99.90;;;;;;5043850;28;20067;-70
2021/01/13 01:46:21;;;;;;;19.60;7.72;;;-1.30;99.90;;;;;;5043668;28;20091;-71
2021/01/13 01:48:53;;;;;;;19.55;8.60;;;-1.30;99.90;;;;;;5036326;28;20112;-70
2021/01/13 01:51:22;;;;;;;18.75;7.97;;;-1.30;99.90;;;;;;5048883;28;20131;-70
2021/01/13 01:54:13;;;;;;;21.52;7.70;;;-1.40;99.90;;;;;;5040814;28;20484;-70
2021/01/13 01:56:41;;;;;;;13.07;6.30;;;-1.40;99.90;;;;;;5040671;28;20124;-70
2021/01/13 01:59:15;;;;;;;14.68;7.28;;;-1.30;99.90;;;;;;5031149;28;20087;-71
2021/01/13 02:01:49;;;;;;;22.67;7.65;;;-1.30;99.90;;;;;;5031582;28;20102;-71
2021/01/13 02:04:36;;;;;;;17.75;7.40;;;-1.40;99.90;;;;;;5036927;28;20049;-71
2021/01/13 02:07:30;;;;;;;18.33;7.47;;;-1.30;99.90;;;;;;5036858;28;20106;-71
2021/01/13 02:09:57;;;;;;;21.52;8.00;;;-1.20;99.90;;;;;;5032103;28;20075;-71
2021/01/13 02:12:31;;;;;;;16.52;5.18;;;-1.10;99.90;;;;;;5035648;28;20053;-71
2021/01/13 02:14:59;;;;;;;14.02;4.75;;;-0.90;99.90;;;;;;5040985;28;20124;-71
2021/01/13 02:17:37;;;;;;;23.13;7.53;;;-0.80;99.90;;;;;;5043587;28;20069;-71
2021/01/13 02:20:14;;;;;;;19.52;6.20;;;-0.70;99.90;;;;;;5031172;28;20049;-71
2021/01/13 02:23:00;;;;;;;13.82;5.65;;;-0.80;99.90;;;;;;5044072;28;20041;-71
2021/01/13 02:25:33;;;;;;;12.85;6.03;;;-0.90;99.90;;;;;;5040053;28;20132;-73
2021/01/13 02:28:01;;;;;;;13.20;5.80;;;-0.90;99.90;;;;;;5037485;28;20460;-73
2021/01/13 02:30:50;;;;;;;19.85;4.38;;;-0.80;99.90;;;;;;5036021;28;20137;-70
2021/01/13 02:33:27;;;;;;;12.07;3.33;;;-0.60;99.90;;;;;;5039320;28;20126;-70
2021/01/13 02:36:17;;;;;;;13.18;4.32;;;-0.50;99.90;;;;;;5033443;28;20101;-70
2021/01/13 02:38:48;;;;;;;15.10;3.45;;;-0.40;99.90;;;;;;5037953;28;20124;-73
2021/01/13 02:41:18;;;;;;;11.80;2.92;;;-0.40;99.90;;;;;;5034322;28;20126;-73
2021/01/13 02:44:00;;;;;;;12.07;2.55;;;-0.30;99.90;;;;;;5036651;28;20045;-70
2021/01/13 02:46:55;;;;;;;13.25;3.55;;;-0.20;99.90;;;;;;5035790;28;20079;-72
2021/01/13 02:49:28;;;;;;;11.00;3.22;;;-0.20;99.90;;;;;;5045118;28;20495;-71
2021/01/13 02:52:10;;;;;;;12.30;4.13;;;-0.20;99.90;;;;;;5045640;28;20049;-70
2021/01/13 02:54:41;;;;;;;11.48;2.83;;;-0.20;99.90;;;;;;5044382;28;20515;-74
2021/01/13 02:57:26;;;;;;;18.63;3.22;;;-0.20;99.90;;;;;;5038206;28;20541;-73
2021/01/13 02:59:56;;;;;;;10.50;2.22;;;-0.20;99.90;;;;;;5034346;28;20462;-73
2021/01/13 03:02:37;;;;;;;9.93;2.70;;;-0.20;99.90;;;;;;5033242;28;20045;-71
2021/01/13 03:05:07;;;;;;;18.15;3.65;;;-0.20;99.90;;;;;;5029632;28;20103;-71
2021/01/13 03:07:38;;;;;;;13.18;2.92;;;-0.20;99.90;;;;;;5039178;28;20136;-71
2021/01/13 03:10:15;;;;;;;12.82;2.97;;;-0.30;99.90;;;;;;5032425;28;20136;-71
2021/01/13 03:12:42;;;;;;;19.25;2.90;;;-0.20;99.90;;;;;;5036549;28;20472;-71
2021/01/13 03:15:10;;;;;;;12.73;3.53;;;-0.30;99.90;;;;;;5038485;28;20124;-71
2021/01/13 03:17:51;;;;;;;11.95;2.60;;;-0.30;99.90;;;;;;5041819;28;20045;-71
2021/01/13 03:20:46;;;;;;;12.55;2.72;;;-0.30;99.90;;;;;;5054874;28;20040;-71
2021/01/13 03:23:23;;;;;;;10.05;2.45;;;-0.30;99.90;;;;;;5031504;28;20136;-71
2021/01/13 03:25:53;;;;;;;15.73;3.88;;;-0.30;99.90;;;;;;5028062;28;20587;-71
2021/01/13 03:28:23;;;;;;;14.60;2.92;;;-0.20;99.90;;;;;;5027858;28;20132;-71
2021/01/13 03:30:52;;;;;;;14.32;2.25;;;-0.20;99.90;;;;;;5041246;28;20085;-71
2021/01/13 03:33:24;;;;;;;14.95;2.65;;;-0.30;99.90;;;;;;5031244;28;20085;-71
2021/01/13 03:36:11;;;;;;;17.55;4.00;;;-0.30;99.90;;;;;;5048063;28;20396;-71
2021/01/13 03:39:07;;;;;;;36.58;3.47;;;-0.30;99.90;;;;;;5048094;28;20069;-71
2021/01/13 03:41:52;;;;;;;13.55;3.00;;;-0.30;99.90;;;;;;5043853;28;20048;-71
2021/01/13 03:44:29;;;;;;;13.25;2.55;;;-0.30;99.90;;;;;;5046686;28;20045;-71
2021/01/13 03:47:19;;;;;;;21.98;2.83;;;-0.30;99.90;;;;;;5041003;28;20095;-71
2021/01/13 03:50:05;;;;;;;6.18;2.30;;;-0.30;99.90;;;;;;5043272;28;20127;-71
2021/01/13 03:52:39;;;;;;;11.82;2.58;;;-0.30;99.90;;;;;;5047611;28;20788;-71
2021/01/13 03:55:06;;;;;;;13.32;2.70;;;-0.20;99.90;;;;;;5038963;28;20073;-71
2021/01/13 03:57:58;;;;;;;7.97;2.47;;;-0.20;99.90;;;;;;5035308;28;20569;-71
2021/01/13 04:00:40;;;;;;;14.15;3.15;;;-0.20;99.90;;;;;;5033217;28;20091;-71
2021/01/13 04:03:18;;;;;;;15.13;2.72;;;-0.20;99.90;;;;;;5053766;28;20048;-71
2021/01/13 04:06:05;;;;;;;13.65;2.53;;;-0.20;99.90;;;;;;5034378;28;20053;-71
2021/01/13 04:08:40;;;;;;;11.95;2.40;;;-0.20;99.90;;;;;;5034442;28;20113;-72
2021/01/13 04:11:18;;;;;;;16.65;4.28;;;-0.10;99.90;;;;;;5050692;28;20045;-71
2021/01/13 04:13:44;;;;;;;18.90;2.70;;;0.00;99.90;;;;;;5045745;28;20122;-71
2021/01/13 04:16:13;;;;;;;7.13;2.40;;;-0.10;99.90;;;;;;5041188;28;20136;-71
2021/01/13 04:18:40;;;;;;;14.85;2.92;;;0.00;99.90;;;;;;5044703;28;20076;-71
2021/01/13 04:21:10;;;;;;;16.42;2.97;;;0.00;99.90;;;;;;5048714;28;20044;-71
2021/01/13 04:23:36;;;;;;;10.82;2.63;;;0.00;99.90;;;;;;5019428;28;20084;-71
2021/01/13 04:26:04;;;;;;;12.05;2.50;;;0.00;99.90;;;;;;5033251;28;20068;-71
2021/01/13 04:28:31;;;;;;;8.93;2.13;;;-0.10;99.90;;;;;;5033233;28;20069;-71
2021/01/13 04:30:57;;;;;;;13.88;2.55;;;-0.20;99.90;;;;;;5033562;28;20085;-71
2021/01/13 04:33:24;;;;;;;11.82;2.30;;;-0.20;99.90;;;;;;5047182;28;20049;-71
2021/01/13 04:35:52;;;;;;;8.45;1.80;;;-0.20;99.90;;;;;;5034140;28;20053;-71
2021/01/13 04:38:27;;;;;;;22.27;3.50;;;-0.20;99.90;;;;;;5036564;28;20128;-71
2021/01/13 04:41:08;;;;;;;13.10;2.78;;;-0.20;99.90;;;;;;5043211;28;20153;-71
2021/01/13 04:43:50;;;;;;;8.82;2.95;;;-0.30;99.90;;;;;;5032664;28;20483;-71
2021/01/13 04:46:27;;;;;;;9.18;3.30;;;-0.40;99.90;;;;;;5041437;28;20140;-71
2021/01/13 04:49:16;;;;;;;10.70;3.33;;;-0.40;99.90;;;;;;5031015;28;20057;-71
2021/01/13 04:51:45;;;;;;;11.07;4.38;;;-0.60;99.90;;;;;;5040248;28;20057;-71
2021/01/13 04:54:16;;;;;;;13.90;4.13;;;-0.70;99.90;;;;;;5052255;28;20439;-71
2021/01/13 04:56:42;;;;;;;17.65;4.03;;;-0.80;99.90;;;;;;5036491;28;20124;-71
2021/01/13 04:59:29;;;;;;;20.73;5.18;;;-1.00;99.90;;;;;;5046764;28;20042;-71
2021/01/13 05:02:11;;;;;;;13.70;4.68;;;-1.10;99.90;;;;;;5043929;28;20135;-71
2021/01/13 05:04:46;;;;;;;19.90;4.68;;;-1.30;99.90;;;;;;5046667;28;20041;-71
2021/01/13 05:07:30;;;;;;;15.80;5.28;;;-1.30;99.90;;;;;;5034221;28;20096;-71
2021/01/13 05:09:59;;;;;;;15.55;4.97;;;-1.40;99.90;;;;;;5032241;28;20158;-71
2021/01/13 05:12:27;;;;;;;16.25;6.10;;;-1.40;99.90;;;;;;5056111;28;20131;-72
2021/01/13 05:15:00;;;;;;;15.68;5.88;;;-1.50;99.90;;;;;;5035015;28;20207;-71
2021/01/13 05:17:35;;;;;;;18.00;6.90;;;-1.50;99.90;;;;;;5030149;28;20135;-71
2021/01/13 05:20:21;;;;;;;20.02;6.97;;;-1.60;99.90;;;;;;5037842;28;20042;-72
2021/01/13 05:22:50;;;;;;;25.38;8.13;;;-1.60;99.90;;;;;;5032985;28;20132;-72
2021/01/13 05:25:43;;;;;;;19.40;7.82;;;-1.70;99.90;;;;;;5039825;28;20079;-71
2021/01/13 05:28:21;;;;;;;23.70;8.27;;;-1.70;99.90;;;;;;5040370;28;20045;-71
2021/01/13 05:30:55;;;;;;;22.63;7.88;;;-1.80;99.90;;;;;;5031560;28;20103;-71
2021/01/13 05:33:25;;;;;;;22.77;7.55;;;-1.80;99.90;;;;;;5030399;28;20137;-71
2021/01/13 05:35:54;;;;;;;18.85;9.10;;;-1.90;99.90;;;;;;5030312;28;20087;-71
2021/01/13 05:38:24;;;;;;;25.48;10.10;;;-1.90;99.90;;;;;;5029393;28;20115;-72
2021/01/13 05:40:53;;;;;;;30.90;10.45;;;-2.00;99.90;;;;;;5048996;28;20076;-71
2021/01/13 05:43:21;;;;;;;26.77;10.77;;;-2.10;99.90;;;;;;5034844;28;20480;-71
2021/01/13 05:45:50;;;;;;;51.45;17.00;;;-2.10;99.90;;;;;;5042390;28;20562;-71
2021/01/13 05:48:18;;;;;;;36.85;13.70;;;-2.00;99.90;;;;;;5048721;28;20045;-71
2021/01/13 05:50:45;;;;;;;39.42;14.18;;;-2.10;99.90;;;;;;5031775;28;20049;-71
2021/01/13 05:53:13;;;;;;;69.85;16.02;;;-2.10;99.90;;;;;;5042112;28;20119;-71
2021/01/13 05:55:46;;;;;;;322.85;30.13;;;-2.10;99.90;;;;;;5048221;28;20049;-71
2021/01/13 05:58:13;;;;;;;96.65;18.58;;;-2.10;99.90;;;;;;5041979;28;20953;-71
2021/01/13 06:00:41;;;;;;;107.07;23.70;;;-1.90;99.90;;;;;;5037951;28;20041;-71
2021/01/13 06:03:11;;;;;;;178.50;28.48;;;-1.80;99.90;;;;;;5043467;28;20142;-71
2021/01/13 06:05:52;;;;;;;129.65;24.13;;;-1.80;99.90;;;;;;5031066;28;20373;-71
2021/01/13 06:08:21;;;;;;;100.13;22.75;;;-1.70;99.90;;;;;;5030096;28;20176;-71
2021/01/13 06:10:50;;;;;;;107.40;25.35;;;-1.70;99.90;;;;;;5032230;28;20096;-71
2021/01/13 06:13:22;;;;;;;42.40;15.32;;;-1.60;99.90;;;;;;5044015;28;20494;-71
2021/01/13 06:15:48;;;;;;;53.70;17.73;;;-1.70;99.90;;;;;;5029142;28;20223;-71
2021/01/13 06:18:21;;;;;;;59.13;18.45;;;-1.70;99.90;;;;;;5028075;28;20085;-71
2021/01/13 06:20:48;;;;;;;59.28;20.15;;;-1.70;99.90;;;;;;5045492;28;20056;-71
2021/01/13 06:23:16;;;;;;;50.03;19.50;;;-1.60;99.90;;;;;;5034426;28;20512;-71
2021/01/13 06:25:44;;;;;;;54.88;20.40;;;-1.50;99.90;;;;;;5029855;28;20076;-71
2021/01/13 06:28:26;;;;;;;57.95;20.10;;;-1.50;99.90;;;;;;5048170;28;20526;-72
2021/01/13 06:31:04;;;;;;;54.42;20.35;;;-1.50;99.90;;;;;;5038396;28;20085;-72
2021/01/13 06:33:39;;;;;;;47.58;18.40;;;-1.50;99.90;;;;;;5033298;28;20053;-71
2021/01/13 06:36:27;;;;;;;50.03;19.27;;;-1.40;99.90;;;;;;5046763;28;20150;-71
2021/01/13 06:38:55;;;;;;;42.58;18.55;;;-1.40;99.90;;;;;;5049079;28;20076;-70
2021/01/13 06:41:23;;;;;;;41.25;19.10;;;-1.40;99.90;;;;;;5049484;28;20132;-73
2021/01/13 06:44:03;;;;;;;43.38;16.50;;;-1.30;99.90;;;;;;5030330;28;20049;-73
2021/01/13 06:46:32;;;;;;;44.72;19.95;;;-1.40;99.90;;;;;;5027955;28;20129;-72
2021/01/13 06:49:18;;;;;;;53.63;21.65;;;-1.30;99.90;;;;;;5027612;28;20053;-73
2021/01/13 06:51:49;;;;;;;49.90;20.52;;;-1.30;99.90;;;;;;5033756;28;20416;-73
2021/01/13 06:54:20;;;;;;;49.90;21.90;;;-1.30;99.90;;;;;;5042968;28;20132;-71
2021/01/13 06:56:51;;;;;;;35.63;13.13;;;-1.30;99.90;;;;;;5029540;28;20061;-71
2021/01/13 06:59:19;;;;;;;38.05;12.65;;;-1.30;99.90;;;;;;5034192;28;20045;-72
2021/01/13 07:01:53;;;;;;;35.22;14.52;;;-1.20;99.90;;;;;;5033588;28;20111;-72
2021/01/13 07:04:21;;;;;;;33.85;14.15;;;-1.20;99.90;;;;;;5046606;28;20056;-72
2021/01/13 07:07:05;;;;;;;36.30;16.98;;;-1.20;99.90;;;;;;5030294;28;20045;-70
2021/01/13 07:09:45;;;;;;;40.50;13.93;;;-1.10;99.90;;;;;;5037399;28;20080;-70
2021/01/13 07:12:26;;;;;;;29.60;13.98;;;-1.00;99.90;;;;;;5049585;28;20106;-70
2021/01/13 07:14:56;;;;;;;45.00;16.38;;;-1.00;99.90;;;;;;5028694;28;20081;-71
2021/01/13 07:17:27;;;;;;;34.15;14.73;;;-0.90;99.90;;;;;;5029146;28;20143;-71
2021/01/13 07:19:55;;;;;;;36.78;15.20;;;-0.90;99.90;;;;;;5029396;28;20046;-72
2021/01/13 07:22:26;;;;;;;32.15;13.00;;;-0.80;99.90;;;;;;5029313;28;20042;-71
2021/01/13 07:24:54;;;;;;;29.40;13.25;;;-0.80;99.90;;;;;;5038222;28;20061;-71
2021/01/13 07:27:22;;;;;;;39.72;15.27;;;-0.80;99.90;;;;;;5047555;28;20568;-71
2021/01/13 07:29:50;;;;;;;32.47;15.05;;;-0.80;99.90;;;;;;5041785;28;20049;-71
2021/01/13 07:32:30;;;;;;;37.78;16.33;;;-0.70;99.90;;;;;;5043749;28;20053;-70
2021/01/13 07:35:05;;;;;;;46.35;17.52;;;-0.80;99.90;;;;;;5030226;28;20388;-71
2021/01/13 07:37:44;;;;;;;48.70;18.58;;;-0.70;99.90;;;;;;5035460;28;20453;-71
2021/01/13 07:40:22;;;;;;;40.60;15.15;;;-0.60;99.90;;;;;;5035627;28;20045;-72
2021/01/13 07:42:57;;;;;;;49.33;19.33;;;-0.50;99.90;;;;;;5043846;28;20076;-71
2021/01/13 07:45:29;;;;;;;42.20;17.20;;;-0.50;99.90;;;;;;5045639;28;20072;-72
2021/01/13 07:48:14;;;;;;;32.80;16.58;;;-0.50;99.90;;;;;;5038512;28;20083;-71
2021/01/13 07:50:42;;;;;;;51.15;20.38;;;-0.40;99.90;;;;;;5031062;28;20057;-71
2021/01/13 07:53:21;;;;;;;43.15;20.50;;;-0.50;99.90;;;;;;5028687;28;20686;-71
2021/01/13 07:55:56;;;;;;;50.72;19.20;;;-0.40;99.90;;;;;;5044885;28;20053;-71
2021/01/13 07:58:27;;;;;;;48.30;20.75;;;-0.40;99.90;;;;;;5030150;28;20452;-71
2021/01/13 08:01:13;;;;;;;51.15;19.88;;;-0.40;99.90;;;;;;5035957;28;20041;-71
2021/01/13 08:04:02;;;;;;;42.08;19.23;;;-0.30;99.90;;;;;;5042644;28;20372;-71
2021/01/13 08:06:34;;;;;;;45.33;20.33;;;-0.30;99.90;;;;;;5026545;28;20128;-71
2021/01/13 08:09:11;;;;;;;54.30;20.33;;;-0.30;99.90;;;;;;5028045;28;20077;-71
2021/01/13 08:12:01;;;;;;;48.80;21.40;;;-0.20;99.90;;;;;;5028336;28;20088;-71
2021/01/13 08:14:51;;;;;;;35.92;18.10;;;-0.20;99.90;;;;;;5032364;28;20053;-72
2021/01/13 08:18:01;;;;;;;41.83;18.83;;;-0.20;99.90;;;;;;5026815;28;20100;-72
2021/01/13 08:21:06;;;;;;;57.45;23.73;;;-0.20;99.90;;;;;;5030524;28;20506;-71
2021/01/13 08:23:40;;;;;;;41.83;19.20;;;-0.30;99.90;;;;;;5032354;28;20080;-72
2021/01/13 08:26:08;;;;;;;44.42;19.15;;;-0.30;99.90;;;;;;5032583;28;20460;-72
2021/01/13 08:28:40;;;;;;;43.55;20.02;;;-0.30;99.90;;;;;;5030634;28;20092;-71
2021/01/13 08:31:07;;;;;;;45.40;19.05;;;-0.30;99.90;;;;;;5037416;28;20132;-71
2021/01/13 08:33:39;;;;;;;45.95;20.25;;;-0.40;99.90;;;;;;5035392;28;20122;-71
2021/01/13 08:36:13;;;;;;;46.20;19.25;;;-0.30;99.90;;;;;;5039491;28;20126;-72
2021/01/13 08:39:12;;;;;;;48.38;18.30;;;-0.30;99.90;;;;;;5043182;28;20144;-71
2021/01/13 08:41:44;;;;;;;37.08;17.50;;;-0.30;99.90;;;;;;5031577;28;20096;-71
2021/01/13 08:44:17;;;;;;;40.67;18.67;;;-0.20;99.90;;;;;;5033247;28;20048;-72
2021/01/13 08:46:50;;;;;;;41.35;18.05;;;-0.10;99.90;;;;;;5051813;28;20052;-71
2021/01/13 08:49:25;;;;;;;41.97;18.23;;;0.10;99.90;;;;;;5042263;28;20156;-72
2021/01/13 08:52:21;;;;;;;41.88;19.75;;;0.20;99.90;;;;;;5033987;28;20054;-72
2021/01/13 08:54:56;;;;;;;36.17;16.88;;;0.30;99.90;;;;;;5037122;28;20053;-72
2021/01/13 08:57:25;;;;;;;48.47;18.38;;;0.20;99.90;;;;;;5030904;28;20104;-72
2021/01/13 08:59:52;;;;;;;48.50;21.52;;;0.20;99.90;;;;;;5031054;28;20132;-71
2021/01/13 09:02:21;;;;;;;38.42;17.58;;;0.30;99.90;;;;;;5038019;28;20480;-72
2021/01/13 09:04:53;;;;;;;40.35;16.85;;;0.30;99.90;;;;;;5050520;28;20091;-71
2021/01/13 09:07:25;;;;;;;40.83;13.63;;;0.30;99.90;;;;;;5030011;28;20053;-72
2021/01/13 09:10:06;;;;;;;32.80;15.55;;;0.20;99.90;;;;;;5035928;28;20073;-72
2021/01/13 09:12:41;;;;;;;42.33;16.45;;;0.40;99.90;;;;;;5036058;28;20048;-72
2021/01/13 09:15:07;;;;;;;29.85;13.13;;;0.40;99.90;;;;;;5029461;28;20076;-72
2021/01/13 09:17:34;;;;;;;38.78;17.38;;;0.40;99.90;;;;;;5044456;28;20056;-71
2021/01/13 09:20:30;;;;;;;32.63;15.25;;;0.50;99.90;;;;;;5042888;28;20069;-71
2021/01/13 09:23:03;;;;;;;37.42;15.65;;;0.60;99.90;;;;;;5037819;28;20106;-72
2021/01/13 09:25:33;;;;;;;45.30;17.77;;;0.60;99.90;;;;;;5039162;28;20410;-72
2021/01/13 09:28:03;;;;;;;42.45;15.50;;;0.60;99.90;;;;;;5048535;28;20045;-71
2021/01/13 09:30:35;;;;;;;32.45;14.38;;;0.70;99.90;;;;;;5043557;28;20076;-71
2021/01/13 09:33:07;;;;;;;33.58;12.40;;;0.70;99.90;;;;;;5033455;28;20068;-71
2021/01/13 09:35:41;;;;;;;35.78;15.50;;;0.80;99.90;;;;;;5030186;28;20046;-72
2021/01/13 09:38:26;;;;;;;33.88;15.60;;;0.70;99.90;;;;;;5041396;28;20065;-70
2021/01/13 09:40:55;;;;;;;27.55;14.00;;;0.90;99.90;;;;;;5046974;28;20701;-70
2021/01/13 09:43:33;;;;;;;22.13;11.65;;;1.00;99.90;;;;;;5042256;28;20473;-70
2021/01/13 09:46:04;;;;;;;26.95;11.88;;;0.90;99.90;;;;;;5036805;28;20147;-71
2021/01/13 09:48:33;;;;;;;29.02;12.68;;;1.00;99.90;;;;;;5034527;28;20045;-70
2021/01/13 09:51:00;;;;;;;26.73;12.98;;;0.90;99.90;;;;;;5051218;28;20098;-70
2021/01/13 09:53:33;;;;;;;30.83;13.68;;;1.00;99.90;;;;;;5042723;28;20049;-70
2021/01/13 09:56:06;;;;;;;25.58;12.00;;;1.00;99.90;;;;;;5044963;28;20053;-70
2021/01/13 09:58:43;;;;;;;37.92;14.35;;;0.90;99.90;;;;;;5029719;28;20045;-70
2021/01/13 10:01:20;;;;;;;27.42;14.07;;;0.90;99.90;;;;;;5037892;28;20124;-70
2021/01/13 10:03:50;;;;;;;32.20;11.27;;;0.90;99.90;;;;;;5043193;28;20442;-69
2021/01/13 10:06:19;;;;;;;29.67;12.82;;;0.90;99.90;;;;;;5049084;28;20049;-70
2021/01/13 10:09:12;;;;;;;31.60;11.55;;;1.00;99.90;;;;;;5048204;28;20049;-70
2021/01/13 10:11:38;;;;;;;28.55;13.88;;;1.20;99.90;;;;;;5031609;28;20072;-70
2021/01/13 10:14:07;;;;;;;30.05;12.70;;;1.10;99.90;;;;;;5043078;28;20049;-70
2021/01/13 10:16:43;;;;;;;23.90;11.57;;;1.10;99.90;;;;;;5050159;28;20049;-70
2021/01/13 10:19:11;;;;;;;20.33;10.52;;;1.20;99.90;;;;;;5048510;28;20118;-69
2021/01/13 10:21:40;;;;;;;23.92;11.05;;;1.40;99.90;;;;;;5030277;28;20053;-70
2021/01/13 10:24:09;;;;;;;23.30;11.00;;;1.30;99.90;;;;;;5030373;28;20132;-71
2021/01/13 10:26:44;;;;;;;28.40;9.77;;;1.30;99.90;;;;;;5029602;28;20057;-70
2021/01/13 10:29:24;;;;;;;23.20;8.68;;;1.50;99.90;;;;;;5038193;28;20392;-70
2021/01/13 10:31:52;;;;;;;20.75;8.77;;;1.40;99.90;;;;;;5030305;28;20047;-70
2021/01/13 10:34:19;;;;;;;25.23;11.52;;;1.40;99.90;;;;;;5029831;28;20144;-70
2021/01/13 10:36:49;;;;;;;35.17;11.57;;;1.50;99.90;;;;;;5033948;28;20044;-70
2021/01/13 10:39:26;;;;;;;19.75;9.57;;;1.70;99.90;;;;;;5029494;28;20491;-70
2021/01/13 10:42:04;;;;;;;19.70;9.80;;;1.70;99.90;;;;;;5028063;28;20049;-70
2021/01/13 10:44:31;;;;;;;22.42;10.38;;;1.80;99.90;;;;;;5043751;28;20061;-70
2021/01/13 10:47:08;;;;;;;25.23;10.90;;;1.90;99.90;;;;;;5029427;28;20096;-70
2021/01/13 10:49:43;;;;;;;24.67;10.27;;;1.90;99.90;;;;;;5029481;28;20471;-70
2021/01/13 10:52:19;;;;;;;19.23;9.02;;;1.90;99.90;;;;;;5029966;28;20478;-70
2021/01/13 10:54:52;;;;;;;18.48;7.88;;;1.90;99.90;;;;;;5035308;28;20053;-70
2021/01/13 10:57:29;;;;;;;28.97;9.73;;;1.80;99.90;;;;;;5029080;28;20144;-70
2021/01/13 11:00:06;;;;;;;18.05;8.80;;;1.70;99.90;;;;;;5030597;28;20046;-70
2021/01/13 11:02:33;;;;;;;21.13;10.35;;;1.70;99.90;;;;;;5028140;28;20073;-70
2021/01/13 11:05:01;;;;;;;19.23;8.32;;;1.80;99.90;;;;;;5039412;28;20045;-70
2021/01/13 11:07:38;;;;;;;20.10;7.63;;;1.80;99.90;;;;;;5042237;28;20111;-70
2021/01/13 11:10:10;;;;;;;22.05;9.15;;;1.70;99.90;;;;;;5028661;28;20108;-70
2021/01/13 11:12:37;;;;;;;20.40;8.77;;;1.80;99.90;;;;;;5031366;28;20423;-70
2021/01/13 11:15:08;;;;;;;17.67;8.40;;;1.90;99.90;;;;;;5029781;28;20053;-70
2021/01/13 11:17:35;;;;;;;19.75;7.70;;;1.90;99.90;;;;;;5035803;28;20122;-70
2021/01/13 11:20:05;;;;;;;19.15;8.30;;;2.00;99.90;;;;;;5052593;28;20049;-71
2021/01/13 11:22:45;;;;;;;15.95;6.97;;;2.10;99.90;;;;;;5043991;28;20145;-70
2021/01/13 11:25:20;;;;;;;15.70;5.78;;;2.00;99.90;;;;;;5043346;28;20506;-70
2021/01/13 11:28:24;;;;;;;18.35;7.47;;;1.90;99.90;;;;;;5043218;28;20444;-70
2021/01/13 11:30:51;;;;;;;12.88;5.68;;;1.80;99.90;;;;;;5033641;28;20060;-71
2021/01/13 11:33:17;;;;;;;16.08;4.35;;;1.80;99.90;;;;;;5042918;28;20045;-70
2021/01/13 11:35:46;;;;;;;21.77;8.32;;;1.80;99.90;;;;;;5049374;28;20077;-71
2021/01/13 11:38:16;;;;;;;14.13;5.88;;;1.90;99.90;;;;;;5048475;28;20123;-71
2021/01/13 11:41:12;;;;;;;13.02;5.13;;;1.90;99.90;;;;;;5041670;28;20053;-71
2021/01/13 11:43:48;;;;;;;15.63;5.97;;;1.80;99.90;;;;;;5048628;28;20049;-70
2021/01/13 11:46:17;;;;;;;14.52;5.55;;;1.80;99.90;;;;;;5045181;28;20156;-70
2021/01/13 11:49:26;;;;;;;14.02;5.30;;;1.70;99.90;;;;;;5044753;28;20053;-70
2021/01/13 11:51:54;;;;;;;18.45;6.07;;;1.70;99.90;;;;;;5048684;28;20052;-70
2021/01/13 11:54:31;;;;;;;20.27;6.57;;;2.00;99.90;;;;;;5050530;28;20049;-70
2021/01/13 11:57:19;;;;;;;15.35;4.82;;;2.10;99.90;;;;;;5045679;28;20084;-70
2021/01/13 11:59:47;;;;;;;15.30;5.18;;;2.10;99.90;;;;;;5035307;28;20447;-70
2021/01/13 12:02:30;;;;;;;15.98;5.03;;;2.20;99.90;;;;;;5041777;28;20476;-70
2021/01/13 12:04:57;;;;;;;16.40;5.60;;;2.00;99.90;;;;;;5033072;28;20076;-70
2021/01/13 12:07:23;;;;;;;20.52;6.93;;;2.20;99.90;;;;;;5051586;28;20098;-71
2021/01/13 12:10:11;;;;;;;25.23;10.50;;;2.30;99.90;;;;;;5051383;28;20434;-71
2021/01/13 12:12:38;;;;;;;20.13;7.80;;;2.20;99.90;;;;;;5051661;28;20091;-70
2021/01/13 12:15:07;;;;;;;11.05;6.15;;;2.20;99.90;;;;;;5043101;28;20136;-70
2021/01/13 12:17:46;;;;;;;14.48;5.78;;;2.30;99.90;;;;;;5052388;28;20642;-70
2021/01/13 12:20:32;;;;;;;19.45;6.28;;;2.20;99.90;;;;;;5033874;28;20045;-70
2021/01/13 12:23:17;;;;;;;16.63;7.07;;;2.30;99.90;;;;;;5033025;28;20052;-70
2021/01/13 12:25:44;;;;;;;20.60;6.68;;;2.40;99.90;;;;;;5044664;28;20103;-70
2021/01/13 12:28:11;;;;;;;14.85;5.85;;;2.50;99.90;;;;;;5051222;28;20455;-70
2021/01/13 12:30:51;;;;;;;18.38;5.70;;;2.50;99.90;;;;;;5052436;28;20490;-71
2021/01/13 12:33:19;;;;;;;12.25;5.00;;;2.40;99.90;;;;;;5047601;28;20057;-71
2021/01/13 12:35:46;;;;;;;13.15;4.00;;;2.20;99.90;;;;;;5031448;28;20533;-70
2021/01/13 12:38:13;;;;;;;23.00;6.72;;;2.20;99.90;;;;;;5032112;28;20061;-70
2021/01/13 12:40:39;;;;;;;22.77;6.60;;;2.30;99.90;;;;;;5032147;28;20121;-70
2021/01/13 12:43:17;;;;;;;20.90;6.38;;;2.20;99.90;;;;;;5035627;28;20627;-70
2021/01/13 12:45:45;;;;;;;19.35;6.30;;;2.20;99.90;;;;;;5050665;28;20070;-70
2021/01/13 12:48:12;;;;;;;21.52;6.82;;;2.30;99.90;;;;;;5045721;28;20591;-69
2021/01/13 12:50:39;;;;;;;22.63;7.70;;;2.30;99.90;;;;;;5037165;28;20040;-70
2021/01/13 12:53:06;;;;;;;24.52;7.25;;;2.50;99.90;;;;;;5066701;28;20118;-70
2021/01/13 12:55:32;;;;;;;15.90;5.15;;;2.40;99.90;;;;;;5051295;28;20102;-70
2021/01/13 12:57:59;;;;;;;19.70;5.70;;;2.50;99.90;;;;;;5043710;28;20076;-69
2021/01/13 13:00:27;;;;;;;14.63;5.22;;;2.40;99.90;;;;;;5048155;28;20049;-69
2021/01/13 13:02:56;;;;;;;7.70;2.92;;;2.50;99.90;;;;;;5039345;28;20092;-70
2021/01/13 13:05:23;;;;;;;11.68;3.90;;;2.40;99.90;;;;;;5049330;28;20064;-71
2021/01/13 13:07:49;;;;;;;23.52;4.80;;;2.40;99.90;;;;;;5045147;28;20049;-70